sensor_id;sensor_type;location;lat;lon;timestamp;pressure;altitude;pressure_sealevel;temperature;humidity
71457;BME280;59263;48.160;11.752;2023-01-29T00:02:19;96788.09;;;-1.11;100.00
71457;BME280;59263;48.160;11.752;2023-01-29T00:04:45;96785.66;;;-1.15;100.00
71457;BME280;59263;48.160;11.752;2023-01-29T00:07:10;96806.53;;;-1.06;100.00
71457;BME280;59263;48.160;11.752;2023-01-29T00:09:35;96810.94;;;-1.11;100.00
71457;BME280;59263;48.160;11.752;2023-01-29T00:12:01;96804.06;;;-1.07;100.00
71457;BME280;59263;48.160;11.752;2023-01-29T00:14:26;96802.19;;;-1.02;100.00
71457;BME280;59263;48.160;11.752;2023-01-29T00:16:52;96792.91;;;-1.03;100.00
71457;BME280;59263;48.160;11.752;2023-01-29T00:19:17;96807.09;;;-0.96;100.00
71457;BME280;59263;48.160;11.752;2023-01-29T00:21:43;96816.38;;;-0.95;100.00
71457;BME280;59263;48.160;11.752;2023-01-29T00:24:09;96811.31;;;-0.97;100.00
71457;BME280;59263;48.160;11.752;2023-01-29T00:26:34;96797.19;;;-1.05;100.00
71457;BME280;59263;48.160;11.752;2023-01-29T00:29:01;96822.34;;;-0.96;100.00
71457;BME280;59263;48.160;11.752;2023-01-29T00:31:27;96812.44;;;-1.05;100.00
71457;BME280;59263;48.160;11.752;2023-01-29T00:33:52;96806.69;;;-1.10;100.00
71457;BME280;59263;48.160;11.752;2023-01-29T00:36:19;96813.28;;;-1.05;100.00
71457;BME280;59263;48.160;11.752;2023-01-29T00:38:45;96826.63;;;-0.98;100.00
71457;BME280;59263;48.160;11.752;2023-01-29T00:41:19;96827.50;;;-0.99;100.00
71457;BME280;59263;48.160;11.752;2023-01-29T00:44:05;96819.19;;;-1.04;100.00
71457;BME280;59263;48.160;11.752;2023-01-29T00:46:49;96824.25;;;-1.04;100.00
71457;BME280;59263;48.160;11.752;2023-01-29T00:49:14;96824.25;;;-1.04;100.00
71457;BME280;59263;48.160;11.752;2023-01-29T00:51:39;96819.88;;;-0.99;100.00
71457;BME280;59263;48.160;11.752;2023-01-29T00:54:05;96829.94;;;-0.96;100.00
71457;BME280;59263;48.160;11.752;2023-01-29T00:56:32;96815.22;;;-1.13;100.00
71457;BME280;59263;48.160;11.752;2023-01-29T00:58:58;96827.78;;;-1.08;100.00
71457;BME280;59263;48.160;11.752;2023-01-29T01:01:23;96819.19;;;-1.04;100.00
71457;BME280;59263;48.160;11.752;2023-01-29T01:04:09;96825.06;;;-1.02;100.00
71457;BME280;59263;48.160;11.752;2023-01-29T01:06:38;96827.03;;;-1.12;100.00
71457;BME280;59263;48.160;11.752;2023-01-29T01:09:05;96812.63;;;-1.11;100.00
71457;BME280;59263;48.160;11.752;2023-01-29T01:11:49;96813.00;;;-1.24;100.00
71457;BME280;59263;48.160;11.752;2023-01-29T01:14:14;96814.47;;;-1.16;100.00
71457;BME280;59263;48.160;11.752;2023-01-29T01:16:39;96835.44;;;-1.10;100.00
71457;BME280;59263;48.160;11.752;2023-01-29T01:19:04;96832.94;;;-1.11;100.00
71457;BME280;59263;48.160;11.752;2023-01-29T01:21:31;96834.53;;;-1.07;100.00
71457;BME280;59263;48.160;11.752;2023-01-29T01:23:56;96823.81;;;-1.17;100.00
71457;BME280;59263;48.160;11.752;2023-01-29T01:26:22;96829.44;;;-1.07;100.00
71457;BME280;59263;48.160;11.752;2023-01-29T01:28:47;96823.50;;;-1.08;100.00
71457;BME280;59263;48.160;11.752;2023-01-29T01:31:13;96818.44;;;-1.08;100.00
71457;BME280;59263;48.160;11.752;2023-01-29T01:33:39;96819.28;;;-1.07;100.00
71457;BME280;59263;48.160;11.752;2023-01-29T01:36:06;96830.13;;;-1.02;100.00
71457;BME280;59263;48.160;11.752;2023-01-29T01:38:37;96829.44;;;-1.07;100.00
71457;BME280;59263;48.160;11.752;2023-01-29T01:41:14;96830.28;;;-1.07;100.00
71457;BME280;59263;48.160;11.752;2023-01-29T01:44:00;96832.09;;;-1.10;100.00
71457;BME280;59263;48.160;11.752;2023-01-29T01:46:31;96824.03;;;-1.25;100.00
71457;BME280;59263;48.160;11.752;2023-01-29T01:49:04;96811.16;;;-1.47;100.00
71457;BME280;59263;48.160;11.752;2023-01-29T01:51:37;96832.78;;;-1.33;100.00
71457;BME280;59263;48.160;11.752;2023-01-29T01:54:11;96827.72;;;-1.35;100.00
71457;BME280;59263;48.160;11.752;2023-01-29T01:56:44;96835.25;;;-1.32;100.00
71457;BME280;59263;48.160;11.752;2023-01-29T01:59:13;96833.53;;;-1.30;100.00
71457;BME280;59263;48.160;11.752;2023-01-29T02:01:42;96829.91;;;-1.23;100.00
71457;BME280;59263;48.160;11.752;2023-01-29T02:04:13;96833.53;;;-1.30;100.00
71457;BME280;59263;48.160;11.752;2023-01-29T02:07:00;96821.91;;;-1.38;100.00
71457;BME280;59263;48.160;11.752;2023-01-29T02:09:54;96831.06;;;-1.33;100.00
71457;BME280;59263;48.160;11.752;2023-01-29T02:12:22;96839.97;;;-1.19;100.00
71457;BME280;59263;48.160;11.752;2023-01-29T02:14:50;96841.00;;;-1.25;100.00
71457;BME280;59263;48.160;11.752;2023-01-29T02:17:17;96821.00;;;-1.36;100.00
71457;BME280;59263;48.160;11.752;2023-01-29T02:30:44;96834.88;;;-1.19;100.00
71457;BME280;59263;48.160;11.752;2023-01-29T02:33:21;96845.03;;;-1.19;100.00
71457;BME280;59263;48.160;11.752;2023-01-29T02:35:57;96833.41;;;-1.27;100.00
71457;BME280;59263;48.160;11.752;2023-01-29T02:38:31;96830.59;;;-1.17;100.00
71457;BME280;59263;48.160;11.752;2023-01-29T02:41:18;96818.09;;;-1.24;100.00
71457;BME280;59263;48.160;11.752;2023-01-29T02:46:52;96804.63;;;-1.26;100.00
71457;BME280;59263;48.160;11.752;2023-01-29T02:49:32;96813.81;;;-1.22;100.00
71457;BME280;59263;48.160;11.752;2023-01-29T02:54:51;96804.41;;;-1.19;100.00
71457;BME280;59263;48.160;11.752;2023-01-29T02:57:24;96817.03;;;-1.16;100.00
71457;BME280;59263;48.160;11.752;2023-01-29T03:00:05;96801.38;;;-1.31;100.00
71457;BME280;59263;48.160;11.752;2023-01-29T03:02:46;96817.13;;;-1.19;100.00
71457;BME280;59263;48.160;11.752;2023-01-29T03:05:24;96806.13;;;-1.20;100.00
71457;BME280;59263;48.160;11.752;2023-01-29T03:07:56;96799.63;;;-1.29;100.00
71457;BME280;59263;48.160;11.752;2023-01-29T03:10:28;96828.16;;;-1.20;100.00
71457;BME280;59263;48.160;11.752;2023-01-29T03:13:02;96805.53;;;-1.28;100.00
71457;BME280;59263;48.160;11.752;2023-01-29T03:15:34;96821.22;;;-1.15;100.00
71457;BME280;59263;48.160;11.752;2023-01-29T03:18:34;96822.00;;;-1.13;100.00
71457;BME280;59263;48.160;11.752;2023-01-29T03:21:07;96814.56;;;-1.19;100.00
71457;BME280;59263;48.160;11.752;2023-01-29T03:23:56;96825.28;;;-1.10;100.00
71457;BME280;59263;48.160;11.752;2023-01-29T03:26:42;96827.97;;;-1.14;100.00
71457;BME280;59263;48.160;11.752;2023-01-29T03:29:30;96823.72;;;-1.14;100.00
71457;BME280;59263;48.160;11.752;2023-01-29T03:32:16;96811.53;;;-1.31;100.00
71457;BME280;59263;48.160;11.752;2023-01-29T03:34:49;96825.91;;;-1.30;100.00
71457;BME280;59263;48.160;11.752;2023-01-29T03:37:27;96841.91;;;-1.28;100.00
71457;BME280;59263;48.160;11.752;2023-01-29T03:39:54;96826.84;;;-1.34;100.00
71457;BME280;59263;48.160;11.752;2023-01-29T03:42:25;96831.66;;;-1.25;100.00
71457;BME280;59263;48.160;11.752;2023-01-29T03:50:36;96822.84;;;-1.13;100.00
71457;BME280;59263;48.160;11.752;2023-01-29T03:53:20;96798.69;;;-1.26;100.00
71457;BME280;59263;48.160;11.752;2023-01-29T03:56:01;96816.25;;;-1.18;100.00
71457;BME280;59263;48.160;11.752;2023-01-29T04:01:44;96806.78;;;-1.13;100.00
71457;BME280;59263;48.160;11.752;2023-01-29T04:04:25;96796.53;;;-1.10;100.00
71457;BME280;59263;48.160;11.752;2023-01-29T04:06:54;96789.97;;;-1.17;100.00
71457;BME280;59263;48.160;11.752;2023-01-29T04:09:28;96784.81;;;-1.14;100.00
71457;BME280;59263;48.160;11.752;2023-01-29T04:12:03;96787.94;;;-1.06;100.00
71457;BME280;59263;48.160;11.752;2023-01-29T04:14:31;96785.63;;;-1.14;100.00
71457;BME280;59263;48.160;11.752;2023-01-29T04:16:59;96789.91;;;-1.16;100.00
71457;BME280;59263;48.160;11.752;2023-01-29T04:19:26;96795.72;;;-1.12;100.00
71457;BME280;59263;48.160;11.752;2023-01-29T04:22:02;96782.53;;;-1.24;100.00
71457;BME280;59263;48.160;11.752;2023-01-29T04:24:30;96799.16;;;-1.13;100.00
71457;BME280;59263;48.160;11.752;2023-01-29T04:27:08;96799.34;;;-1.19;100.00
71457;BME280;59263;48.160;11.752;2023-01-29T04:40:42;96784.31;;;-1.26;100.00
71457;BME280;59263;48.160;11.752;2023-01-29T04:43:24;96795.16;;;-1.20;100.00
71457;BME280;59263;48.160;11.752;2023-01-29T04:45:58;96805.97;;;-1.15;100.00
71457;BME280;59263;48.160;11.752;2023-01-29T04:51:30;96795.22;;;-1.22;100.00
71457;BME280;59263;48.160;11.752;2023-01-29T04:56:38;96787.72;;;-1.27;100.00
71457;BME280;59263;48.160;11.752;2023-01-29T04:59:12;96799.53;;;-1.26;100.00
71457;BME280;59263;48.160;11.752;2023-01-29T05:01:42;96789.66;;;-1.35;100.00
71457;BME280;59263;48.160;11.752;2023-01-29T05:04:10;96780.56;;;-1.42;100.00
71457;BME280;59263;48.160;11.752;2023-01-29T05:06:38;96794.72;;;-1.35;100.00
71457;BME280;59263;48.160;11.752;2023-01-29T05:09:04;96792.34;;;-1.39;100.00
71457;BME280;59263;48.160;11.752;2023-01-29T05:11:31;96798.06;;;-1.33;100.00
71457;BME280;59263;48.160;11.752;2023-01-29T05:13:58;96803.97;;;-1.32;100.00
71457;BME280;59263;48.160;11.752;2023-01-29T05:16:32;96815.59;;;-1.25;100.00
71457;BME280;59263;48.160;11.752;2023-01-29T05:19:09;96796.59;;;-1.40;100.00
71457;BME280;59263;48.160;11.752;2023-01-29T05:21:36;96810.88;;;-1.37;100.00
71457;BME280;59263;48.160;11.752;2023-01-29T05:24:20;96806.91;;;-1.46;100.00
71457;BME280;59263;48.160;11.752;2023-01-29T05:26:47;96830.34;;;-1.38;100.00
71457;BME280;59263;48.160;11.752;2023-01-29T05:29:32;96830.56;;;-1.44;100.00
71457;BME280;59263;48.160;11.752;2023-01-29T05:31:57;96832.22;;;-1.43;100.00
71457;BME280;59263;48.160;11.752;2023-01-29T05:34:25;96824.75;;;-1.49;100.00
71457;BME280;59263;48.160;11.752;2023-01-29T05:36:51;96835.81;;;-1.50;100.00
71457;BME280;59263;48.160;11.752;2023-01-29T05:39:16;96837.50;;;-1.51;100.00
71457;BME280;59263;48.160;11.752;2023-01-29T05:41:42;96847.44;;;-1.43;100.00
71457;BME280;59263;48.160;11.752;2023-01-29T05:44:10;96849.81;;;-1.37;100.00
71457;BME280;59263;48.160;11.752;2023-01-29T05:46:36;96846.41;;;-1.37;100.00
71457;BME280;59263;48.160;11.752;2023-01-29T05:49:07;96841.44;;;-1.40;100.00
71457;BME280;59263;48.160;11.752;2023-01-29T05:51:35;96821.41;;;-1.50;100.00
71457;BME280;59263;48.160;11.752;2023-01-29T05:54:03;96834.69;;;-1.41;100.00
71457;BME280;59263;48.160;11.752;2023-01-29T05:56:28;96837.13;;;-1.37;100.00
71457;BME280;59263;48.160;11.752;2023-01-29T05:58:54;96825.38;;;-1.41;100.00
71457;BME280;59263;48.160;11.752;2023-01-29T06:01:22;96817.75;;;-1.41;100.00
71457;BME280;59263;48.160;11.752;2023-01-29T06:03:48;96806.91;;;-1.46;100.00
71457;BME280;59263;48.160;11.752;2023-01-29T06:06:14;96836.88;;;-1.29;100.00
71457;BME280;59263;48.160;11.752;2023-01-29T06:08:40;96830.28;;;-1.35;100.00
71457;BME280;59263;48.160;11.752;2023-01-29T06:11:10;96845.13;;;-1.23;100.00
71457;BME280;59263;48.160;11.752;2023-01-29T06:13:36;96830.44;;;-1.41;100.00
71457;BME280;59263;48.160;11.752;2023-01-29T06:16:08;96838.84;;;-1.39;100.00
71457;BME280;59263;48.160;11.752;2023-01-29T06:18:38;96838.13;;;-1.42;100.00
71457;BME280;59263;48.160;11.752;2023-01-29T06:21:05;96839.03;;;-1.45;100.00
71457;BME280;59263;48.160;11.752;2023-01-29T06:23:31;96806.63;;;-1.65;100.00
71457;BME280;59263;48.160;11.752;2023-01-29T06:26:04;96843.25;;;-1.44;100.00
71457;BME280;59263;48.160;11.752;2023-01-29T06:28:30;96844.91;;;-1.43;100.00
71457;BME280;59263;48.160;11.752;2023-01-29T06:30:59;96851.53;;;-1.39;100.00
71457;BME280;59263;48.160;11.752;2023-01-29T06:33:25;96840.50;;;-1.38;100.00
71457;BME280;59263;48.160;11.752;2023-01-29T06:35:57;96843.03;;;-1.36;100.00
71457;BME280;59263;48.160;11.752;2023-01-29T06:38:24;96846.31;;;-1.33;100.00
71457;BME280;59263;48.160;11.752;2023-01-29T06:40:50;96844.66;;;-1.35;100.00
71457;BME280;59263;48.160;11.752;2023-01-29T06:43:15;96858.91;;;-1.30;100.00
71457;BME280;59263;48.160;11.752;2023-01-29T06:48:13;96852.88;;;-1.26;100.00
71457;BME280;59263;48.160;11.752;2023-01-29T06:50:38;96851.09;;;-1.24;100.00
71457;BME280;59263;48.160;11.752;2023-01-29T06:53:03;96853.72;;;-1.27;100.00
71457;BME280;59263;48.160;11.752;2023-01-29T06:55:29;96853.59;;;-1.22;100.00
71457;BME280;59263;48.160;11.752;2023-01-29T06:57:54;96830.34;;;-1.38;100.00
71457;BME280;59263;48.160;11.752;2023-01-29T07:00:19;96843.47;;;-1.24;100.00
71457;BME280;59263;48.160;11.752;2023-01-29T07:02:48;96846.81;;;-1.22;100.00
71457;BME280;59263;48.160;11.752;2023-01-29T07:05:13;96840.91;;;-1.22;100.00
71457;BME280;59263;48.160;11.752;2023-01-29T07:07:38;96850.13;;;-1.19;100.00
71457;BME280;59263;48.160;11.752;2023-01-29T07:10:04;96849.25;;;-1.18;100.00
71457;BME280;59263;48.160;11.752;2023-01-29T07:12:29;96856.97;;;-1.22;100.00
71457;BME280;59263;48.160;11.752;2023-01-29T07:14:55;96835.09;;;-1.26;100.00
71457;BME280;59263;48.160;11.752;2023-01-29T07:17:20;96839.88;;;-1.16;100.00
71457;BME280;59263;48.160;11.752;2023-01-29T07:19:45;96829.72;;;-1.16;100.00
71457;BME280;59263;48.160;11.752;2023-01-29T07:22:11;96818.00;;;-1.20;100.00
71457;BME280;59263;48.160;11.752;2023-01-29T07:24:38;96821.13;;;-1.12;100.00
71457;BME280;59263;48.160;11.752;2023-01-29T07:27:06;96807.00;;;-1.21;100.00
71457;BME280;59263;48.160;11.752;2023-01-29T07:29:32;96822.16;;;-1.18;100.00
71457;BME280;59263;48.160;11.752;2023-01-29T07:31:57;96832.22;;;-1.15;100.00
71457;BME280;59263;48.160;11.752;2023-01-29T07:34:23;96819.38;;;-1.10;100.00
71457;BME280;59263;48.160;11.752;2023-01-29T07:36:48;96801.09;;;-1.22;100.00
71457;BME280;59263;48.160;11.752;2023-01-29T07:39:16;96822.59;;;-1.05;100.00
71457;BME280;59263;48.160;11.752;2023-01-29T07:41:44;96807.75;;;-1.17;100.00
71457;BME280;59263;48.160;11.752;2023-01-29T07:44:09;96821.84;;;-1.07;100.00
71457;BME280;59263;48.160;11.752;2023-01-29T07:46:35;96811.75;;;-1.10;100.00
71457;BME280;59263;48.160;11.752;2023-01-29T07:49:00;96794.91;;;-1.13;100.00
71457;BME280;59263;48.160;11.752;2023-01-29T07:51:26;96823.09;;;-0.94;100.00
71457;BME280;59263;48.160;11.752;2023-01-29T07:53:51;96810.47;;;-0.95;100.00
71457;BME280;59263;48.160;11.752;2023-01-29T07:56:17;96804.66;;;-0.99;100.00
71457;BME280;59263;48.160;11.752;2023-01-29T07:58:42;96811.19;;;-0.92;100.00
71457;BME280;59263;48.160;11.752;2023-01-29T08:01:08;96807.28;;;-1.02;100.00
71457;BME280;59263;48.160;11.752;2023-01-29T08:03:33;96787.44;;;-1.17;100.00
71457;BME280;59263;48.160;11.752;2023-01-29T08:05:58;96802.59;;;-1.14;100.00
71457;BME280;59263;48.160;11.752;2023-01-29T08:08:24;96802.47;;;-1.11;100.00
71457;BME280;59263;48.160;11.752;2023-01-29T08:10:50;96805.53;;;-1.00;100.00
71457;BME280;59263;48.160;11.752;2023-01-29T08:13:15;96808.00;;;-0.99;100.00
71457;BME280;59263;48.160;11.752;2023-01-29T08:15:44;96810.41;;;-0.94;100.00
71457;BME280;59263;48.160;11.752;2023-01-29T08:18:10;96815.38;;;-0.91;100.00
71457;BME280;59263;48.160;11.752;2023-01-29T08:20:44;96816.94;;;-0.87;100.00
71457;BME280;59263;48.160;11.752;2023-01-29T08:23:13;96816.94;;;-0.87;100.00
71457;BME280;59263;48.160;11.752;2023-01-29T08:25:39;96793.25;;;-1.14;100.00
71457;BME280;59263;48.160;11.752;2023-01-29T08:28:04;96799.66;;;-1.02;100.00
71457;BME280;59263;48.160;11.752;2023-01-29T08:30:32;96816.22;;;-0.90;100.00
71457;BME280;59263;48.160;11.752;2023-01-29T08:32:58;96810.00;;;-0.82;100.00
71457;BME280;59263;48.160;11.752;2023-01-29T08:35:24;96800.06;;;-0.88;100.00
71457;BME280;59263;48.160;11.752;2023-01-29T08:37:53;96821.34;;;-0.92;100.00
71457;BME280;59263;48.160;11.752;2023-01-29T08:40:19;96835.13;;;-0.99;100.00
71457;BME280;59263;48.160;11.752;2023-01-29T08:42:44;96817.13;;;-1.19;100.00
71457;BME280;59263;48.160;11.752;2023-01-29T08:45:10;96800.09;;;-1.44;100.00
71457;BME280;59263;48.160;11.752;2023-01-29T08:47:35;96841.91;;;-1.28;100.00
71457;BME280;59263;48.160;11.752;2023-01-29T08:50:01;96842.72;;;-1.26;100.00
71457;BME280;59263;48.160;11.752;2023-01-29T08:52:26;96854.28;;;-1.17;100.00
71457;BME280;59263;48.160;11.752;2023-01-29T08:54:51;96829.25;;;-1.01;100.00
71457;BME280;59263;48.160;11.752;2023-01-29T08:57:16;96857.59;;;-0.87;100.00
71457;BME280;59263;48.160;11.752;2023-01-29T08:59:42;96856.69;;;-0.86;100.00
71457;BME280;59263;48.160;11.752;2023-01-29T09:02:09;96851.75;;;-0.89;100.00
71457;BME280;59263;48.160;11.752;2023-01-29T09:04:35;96829.25;;;-1.01;100.00
71457;BME280;59263;48.160;11.752;2023-01-29T09:07:00;96859.38;;;-0.89;100.00
71457;BME280;59263;48.160;11.752;2023-01-29T09:09:26;96831.28;;;-1.12;100.00
71457;BME280;59263;48.160;11.752;2023-01-29T09:11:51;96848.88;;;-1.06;100.00
71457;BME280;59263;48.160;11.752;2023-01-29T09:14:16;96871.50;;;-0.99;100.00
71457;BME280;59263;48.160;11.752;2023-01-29T09:16:42;96855.78;;;-1.11;100.00
71457;BME280;59263;48.160;11.752;2023-01-29T09:19:07;96872.19;;;-0.93;100.00
71457;BME280;59263;48.160;11.752;2023-01-29T09:21:32;96872.84;;;-0.87;100.00
71457;BME280;59263;48.160;11.752;2023-01-29T09:23:58;96879.38;;;-0.80;100.00
71457;BME280;59263;48.160;11.752;2023-01-29T09:26:23;96873.25;;;-0.73;100.00
71457;BME280;59263;48.160;11.752;2023-01-29T09:28:48;96884.00;;;-0.64;100.00
71457;BME280;59263;48.160;11.752;2023-01-29T09:31:14;96875.69;;;-0.69;100.00
71457;BME280;59263;48.160;11.752;2023-01-29T09:33:39;96879.31;;;-0.78;100.00
71457;BME280;59263;48.160;11.752;2023-01-29T09:36:05;96884.38;;;-0.77;100.00
71457;BME280;59263;48.160;11.752;2023-01-29T09:38:30;96881.03;;;-0.79;100.00
71457;BME280;59263;48.160;11.752;2023-01-29T09:41:17;96892.97;;;-0.81;100.00
71457;BME280;59263;48.160;11.752;2023-01-29T09:43:53;96896.97;;;-1.00;100.00
71457;BME280;59263;48.160;11.752;2023-01-29T09:46:24;96896.97;;;-1.00;100.00
71457;BME280;59263;48.160;11.752;2023-01-29T09:48:59;96905.25;;;-0.95;100.00
71457;BME280;59263;48.160;11.752;2023-01-29T09:51:48;96895.09;;;-0.95;100.00
71457;BME280;59263;48.160;11.752;2023-01-29T09:54:27;96891.88;;;-1.00;100.00
71457;BME280;59263;48.160;11.752;2023-01-29T09:56:56;96886.81;;;-1.00;100.00
71457;BME280;59263;48.160;11.752;2023-01-29T09:59:24;96896.75;;;-0.94;100.00
71457;BME280;59263;48.160;11.752;2023-01-29T10:23:35;96875.97;;;-0.79;100.00
71457;BME280;59263;48.160;11.752;2023-01-29T10:26:02;96847.34;;;-0.84;100.00
71457;BME280;59263;48.160;11.752;2023-01-29T10:28:38;96884.56;;;-0.56;100.00
71457;BME280;59263;48.160;11.752;2023-01-29T10:31:14;96872.75;;;-0.57;100.00
71457;BME280;59263;48.160;11.752;2023-01-29T10:33:45;96874.41;;;-0.56;100.00
71457;BME280;59263;48.160;11.752;2023-01-29T10:36:25;96858.47;;;-0.61;100.00
71457;BME280;59263;48.160;11.752;2023-01-29T10:38:53;96853.59;;;-0.67;100.00
71457;BME280;59263;48.160;11.752;2023-01-29T10:52:22;96885.28;;;-0.51;100.00
71457;BME280;59263;48.160;11.752;2023-01-29T10:57:51;96875.00;;;-0.48;100.00
71457;BME280;59263;48.160;11.752;2023-01-29T11:00:21;96836.50;;;-0.62;100.00
71457;BME280;59263;48.160;11.752;2023-01-29T11:02:50;96863.56;;;-0.61;100.00
71457;BME280;59263;48.160;11.752;2023-01-29T11:05:29;96858.75;;;-0.70;100.00
71457;BME280;59263;48.160;11.752;2023-01-29T11:08:10;96844.56;;;-0.76;100.00
71457;BME280;59263;48.160;11.752;2023-01-29T11:10:43;96848.00;;;-0.52;100.00
71457;BME280;59263;48.160;11.752;2023-01-29T11:13:13;96818.91;;;-0.68;100.00
71457;BME280;59263;48.160;11.752;2023-01-29T11:15:39;96859.53;;;-0.42;100.00
71457;BME280;59263;48.160;11.752;2023-01-29T11:18:13;96838.78;;;-0.55;100.00
71457;BME280;59263;48.160;11.752;2023-01-29T11:20:41;96814.06;;;-0.76;100.00
71457;BME280;59263;48.160;11.752;2023-01-29T11:25:53;96857.66;;;-0.62;100.00
71457;BME280;59263;48.160;11.752;2023-01-29T11:28:42;96846.75;;;-0.65;100.00
71457;BME280;59263;48.160;11.752;2023-01-29T11:33:40;96836.78;;;-0.71;100.00
71457;BME280;59263;48.160;11.752;2023-01-29T11:36:30;96826.72;;;-0.75;100.00
71457;BME280;59263;48.160;11.752;2023-01-29T11:39:21;96838.66;;;-0.77;100.00
71457;BME280;59263;48.160;11.752;2023-01-29T11:42:01;96834.06;;;-0.65;100.00
71457;BME280;59263;48.160;11.752;2023-01-29T11:44:40;96830.59;;;-0.63;100.00
71457;BME280;59263;48.160;11.752;2023-01-29T11:49:56;96820.72;;;-0.72;100.00
71457;BME280;59263;48.160;11.752;2023-01-29T11:52:26;96780.97;;;-0.75;100.00
71457;BME280;59263;48.160;11.752;2023-01-29T11:55:14;96785.56;;;-0.59;100.00
71457;BME280;59263;48.160;11.752;2023-01-29T11:57:42;96769.53;;;-0.61;100.00
71457;BME280;59263;48.160;11.752;2023-01-29T12:00:16;96768.34;;;-0.51;100.00
71457;BME280;59263;48.160;11.752;2023-01-29T12:02:45;96739.41;;;-0.47;100.00
71457;BME280;59263;48.160;11.752;2023-01-29T12:05:17;96754.34;;;-0.14;100.00
71457;BME280;59263;48.160;11.752;2023-01-29T12:07:47;96751.91;;;-0.17;100.00
71457;BME280;59263;48.160;11.752;2023-01-29T12:10:39;96746.16;;;-0.22;100.00
71457;BME280;59263;48.160;11.752;2023-01-29T12:13:25;96720.50;;;-0.40;100.00
71457;BME280;59263;48.160;11.752;2023-01-29T12:16:10;96740.56;;;-0.32;100.00
71457;BME280;59263;48.160;11.752;2023-01-29T12:18:43;96733.56;;;-0.26;100.00
71457;BME280;59263;48.160;11.752;2023-01-29T12:26:23;96761.28;;;-0.43;100.00
71457;BME280;59263;48.160;11.752;2023-01-29T12:32:04;96758.31;;;-0.31;100.00
71457;BME280;59263;48.160;11.752;2023-01-29T12:34:47;96745.84;;;-0.37;100.00
71457;BME280;59263;48.160;11.752;2023-01-29T12:39:52;96749.66;;;-0.50;100.00
71457;BME280;59263;48.160;11.752;2023-01-29T12:42:19;96761.28;;;-0.43;100.00
71457;BME280;59263;48.160;11.752;2023-01-29T12:44:58;96740.84;;;-0.40;100.00
71457;BME280;59263;48.160;11.752;2023-01-29T12:47:34;96722.59;;;-0.51;100.00
71457;BME280;59263;48.160;11.752;2023-01-29T12:50:05;96732.84;;;-0.29;100.00
71457;BME280;59263;48.160;11.752;2023-01-29T12:55:40;96727.41;;;-0.20;100.00
71457;BME280;59263;48.160;11.752;2023-01-29T13:06:07;96698.03;;;-0.52;100.00
71457;BME280;59263;48.160;11.752;2023-01-29T13:11:03;96679.59;;;-0.34;100.00
71457;BME280;59263;48.160;11.752;2023-01-29T13:13:58;96674.66;;;-0.37;100.00
71457;BME280;59263;48.160;11.752;2023-01-29T13:16:29;96667.56;;;-0.29;100.00
71457;BME280;59263;48.160;11.752;2023-01-29T13:19:02;96666.84;;;-0.32;100.00
71457;BME280;59263;48.160;11.752;2023-01-29T13:21:36;96681.72;;;-0.21;100.00
71457;BME280;59263;48.160;11.752;2023-01-29T13:24:19;96664.13;;;-0.28;100.00
71457;BME280;59263;48.160;11.752;2023-01-29T13:26:46;96661.03;;;-0.36;100.00
71457;BME280;59263;48.160;11.752;2023-01-29T13:29:21;96651.69;;;-0.35;100.00
71457;BME280;59263;48.160;11.752;2023-01-29T13:31:49;96659.03;;;-0.28;100.00
71457;BME280;59263;48.160;11.752;2023-01-29T13:34:23;96653.84;;;-0.25;100.00
71457;BME280;59263;48.160;11.752;2023-01-29T13:36:54;96647.16;;;-0.27;100.00
71457;BME280;59263;48.160;11.752;2023-01-29T13:39:25;96663.66;;;-0.15;100.00
71457;BME280;59263;48.160;11.752;2023-01-29T13:41:52;96646.78;;;-0.40;100.00
71457;BME280;59263;48.160;11.752;2023-01-29T13:46:55;96650.25;;;-0.42;100.00
71457;BME280;59263;48.160;11.752;2023-01-29T13:49:27;96634.06;;;-0.40;100.00
71457;BME280;59263;48.160;11.752;2023-01-29T13:51:54;96630.75;;;-0.42;100.00
71457;BME280;59263;48.160;11.752;2023-01-29T13:54:23;96624.00;;;-0.43;100.00
71457;BME280;59263;48.160;11.752;2023-01-29T13:59:53;96638.28;;;-0.39;100.00
71457;BME280;59263;48.160;11.752;2023-01-29T14:02:29;96644.00;;;-0.34;100.00
71457;BME280;59263;48.160;11.752;2023-01-29T14:13:44;96639.59;;;-0.29;100.00
71457;BME280;59263;48.160;11.752;2023-01-29T14:18:51;96619.53;;;-0.36;100.00
71457;BME280;59263;48.160;11.752;2023-01-29T14:21:31;96619.56;;;-0.38;100.00
71457;BME280;59263;48.160;11.752;2023-01-29T14:23:58;96602.03;;;-0.44;100.00
71457;BME280;59263;48.160;11.752;2023-01-29T14:26:39;96639.59;;;-0.29;100.00
71457;BME280;59263;48.160;11.752;2023-01-29T14:31:57;96632.84;;;-0.53;100.00
71457;BME280;59263;48.160;11.752;2023-01-29T14:34:33;96654.41;;;-0.40;100.00
71457;BME280;59263;48.160;11.752;2023-01-29T14:37:29;96651.09;;;-0.42;100.00
71457;BME280;59263;48.160;11.752;2023-01-29T14:42:38;96664.59;;;-0.40;100.00
71457;BME280;59263;48.160;11.752;2023-01-29T14:45:29;96633.09;;;-0.59;100.00
71457;BME280;59263;48.160;11.752;2023-01-29T14:53:14;96661.34;;;-0.45;100.00
71457;BME280;59263;48.160;11.752;2023-01-29T14:55:53;96628.59;;;-0.53;100.00
71457;BME280;59263;48.160;11.752;2023-01-29T14:58:30;96656.16;;;-0.42;100.00
71457;BME280;59263;48.160;11.752;2023-01-29T15:00:58;96638.00;;;-0.55;100.00
71457;BME280;59263;48.160;11.752;2023-01-29T15:06:05;96613.41;;;-0.78;100.00
71457;BME280;59263;48.160;11.752;2023-01-29T15:08:37;96645.72;;;-0.58;100.00
71457;BME280;59263;48.160;11.752;2023-01-29T15:11:14;96644.28;;;-0.65;100.00
71457;BME280;59263;48.160;11.752;2023-01-29T15:14:13;96641.56;;;-0.60;100.00
71457;BME280;59263;48.160;11.752;2023-01-29T15:16:59;96632.06;;;-0.79;100.00
71457;BME280;59263;48.160;11.752;2023-01-29T15:19:35;96645.44;;;-0.74;100.00
71457;BME280;59263;48.160;11.752;2023-01-29T15:22:05;96639.66;;;-0.77;100.00
71457;BME280;59263;48.160;11.752;2023-01-29T15:24:32;96629.75;;;-0.85;100.00